Main page
METAR-TAF:

METAR-TAF

Airports :

Kangra Airport

Dharamsala, India

latitude: 32-09-54N, longitude: 76-15-48E, elevation: 770 m

Current weather observation

The report was made 25 minutes ago, at 03:00 UTC
Wind 1 kt from the East/Southeast
Temperature 10°C
Humidity 93%
Pressure 1019 hPa
Visibility: 6000 m

METAR: VIGG 010300Z 12001KT 6000 NSC 10/09 Q1019

Time: 08:55 (03:25 UTC)

Forecast

The report was made 4 hours and 25 minutes ago, at 23:00 UTC
Forecast valid from 28 at 00 UTC to 28 at 09 UTC
Wind 4 kt from the East/Northeast
Visibility: 4000 m
Few clouds at a height of 3000 ft
Scattered clouds at a height of 6000 ft
haze
Becoming
from 28 at 05 UTC to 28 at 07 UTC
Wind 4 kt from the South/Southeast
Visibility: 5000 m
haze

TAF: VIGG 272300Z 2800/2809 07004KT 4000 HZ FEW030 SCT060 BECMG 2805/2807 15004KT 5000 HZ

Weather observations and forecasts of more than 4000 airports (METAR and TAF reports).

The available stations are represented by yellow and red dots on the map.

Hover mouse over dot to see the name of the station.

Then click to see weather observations and forecasts.

To change the map : click on the green buttons with a black cross to zoom in, on the green button with a dash to zoom out, or on the green arrows for adjacent maps.


METAR-TAF: